Riviera, Texas
Current Conditions -  °F | °C
As of 10:56 AM on Monday 22 Dec 2014 (Local Time) from KNQI Reporting Station
Overcast Overcast  
Wind Chill: 64°   Ceiling: 500
Heat Index: 64°   Visibility: 10mi
Dew Point: 64°   Wind: 9mph
Humidity: 100%   Direction: 220°SW
Pressure: 29.79"   Gusts: NA
Location:  27.3°N, 97.82°W
Report Text: KNQI 221656Z 22008KT 10SM OVC005 18/18 A2979 RMK AO2 SLP084 T01780178 $
Loading
Personal Weather Stations






























Interactive Weather Map New forecast layout! Learn more

10-Day Weather Forecast

Advertisements
Track Severe Weather on mobile